Time,TemperatureF,DewpointF,PressureIn,WindDirection,WindDirectionDegrees,WindSpeedMPH,WindSpeedGustMPH,Humidity,HourlyPrecipIn,Conditions,Clouds,dailyrainin,SoftwareType,DateUTC
2013-01-27 00:06:00,25.6,19.0,30.42,West,264,0.0,3.0,75,0.00,,,0.00,weatherlink.com 1.10,2013-01-27 05:06:00,
2013-01-27 00:20:00,26.2,18.0,30.41,WSW,254,0.0,2.0,72,0.00,,,0.00,weatherlink.com 1.10,2013-01-27 05:20:00,
2013-01-27 00:36:00,26.4,18.0,30.42,WSW,257,2.0,6.0,70,0.00,,,0.00,weatherlink.com 1.10,2013-01-27 05:36:00,
2013-01-27 00:51:00,26.7,18.0,30.43,WNW,283,3.0,9.0,69,0.00,,,0.00,weatherlink.com 1.10,2013-01-27 05:51:00,
2013-01-27 01:06:00,26.9,17.0,30.42,WSW,254,2.0,8.0,67,0.00,,,0.00,weatherlink.com 1.10,2013-01-27 06:06:00,
2013-01-27 01:21:00,26.9,17.0,30.43,West,263,6.0,7.0,67,0.00,,,0.00,weatherlink.com 1.10,2013-01-27 06:21:00,
2013-01-27 01:36:00,26.9,17.0,30.43,West,264,6.0,7.0,66,0.00,,,0.00,weatherlink.com 1.10,2013-01-27 06:36:00,
2013-01-27 01:51:00,26.8,16.0,30.44,West,263,4.0,6.0,65,0.00,,,0.00,weatherlink.com 1.10,2013-01-27 06:51:00,
2013-01-27 02:06:00,26.5,16.0,30.45,West,262,2.0,5.0,65,0.00,,,0.00,weatherlink.com 1.10,2013-01-27 07:06:00,
2013-01-27 02:21:00,26.4,16.0,30.45,WSW,256,1.0,5.0,65,0.00,,,0.00,weatherlink.com 1.10,2013-01-27 07:21:00,
2013-01-27 02:36:00,26.3,16.0,30.46,West,267,3.0,7.0,66,0.00,,,0.00,weatherlink.com 1.10,2013-01-27 07:36:00,
2013-01-27 02:51:00,26.3,16.0,30.46,West,262,3.0,7.0,66,0.00,,,0.00,weatherlink.com 1.10,2013-01-27 07:51:00,
2013-01-27 03:06:00,26.2,16.0,30.46,West,262,1.0,4.0,66,0.00,,,0.00,weatherlink.com 1.10,2013-01-27 08:06:00,
2013-01-27 03:21:00,26.1,16.0,30.45,West,273,4.0,6.0,66,0.00,,,0.00,weatherlink.com 1.10,2013-01-27 08:21:00,
2013-01-27 03:36:00,26.1,16.0,30.46,West,269,2.0,5.0,67,0.00,,,0.00,weatherlink.com 1.10,2013-01-27 08:36:00,
2013-01-27 03:51:00,25.8,16.0,30.46,WSW,252,1.0,4.0,67,0.00,,,0.00,weatherlink.com 1.10,2013-01-27 08:51:00,
2013-01-27 04:06:00,25.7,16.0,30.46,WNW,294,3.0,4.0,67,0.00,,,0.00,weatherlink.com 1.10,2013-01-27 09:06:00,
2013-01-27 04:21:00,25.5,16.0,30.46,West,264,0.0,3.0,68,0.00,,,0.00,weatherlink.com 1.10,2013-01-27 09:21:00,
2013-01-27 04:36:00,25.0,15.0,30.47,West,266,1.0,6.0,67,0.00,,,0.00,weatherlink.com 1.10,2013-01-27 09:36:00,
2013-01-27 04:51:00,24.3,15.0,30.47,West,277,1.0,4.0,68,0.00,,,0.00,weatherlink.com 1.10,2013-01-27 09:51:00,
2013-01-27 05:06:00,23.7,15.0,30.46,WNW,295,0.0,2.0,69,0.00,,,0.00,weatherlink.com 1.10,2013-01-27 10:06:00,
2013-01-27 05:21:00,23.3,15.0,30.46,WNW,303,1.0,3.0,70,0.00,,,0.00,weatherlink.com 1.10,2013-01-27 10:21:00,
2013-01-27 05:36:00,22.9,15.0,30.47,West,277,0.0,1.0,71,0.00,,,0.00,weatherlink.com 1.10,2013-01-27 10:36:00,
2013-01-27 05:51:00,22.4,15.0,30.48,WSW,244,0.0,0.0,72,0.00,,,0.00,weatherlink.com 1.10,2013-01-27 10:51:00,
2013-01-27 06:06:00,20.9,14.0,30.49,SE,127,0.0,0.0,75,0.00,,,0.00,weatherlink.com 1.10,2013-01-27 11:06:00,
2013-01-27 06:21:00,20.4,14.0,30.49,SE,127,0.0,0.0,76,0.00,,,0.00,weatherlink.com 1.10,2013-01-27 11:21:00,
2013-01-27 06:36:00,19.4,13.0,30.50,SE,128,0.0,0.0,77,0.00,,,0.00,weatherlink.com 1.10,2013-01-27 11:36:00,
2013-01-27 06:51:00,19.2,14.0,30.50,SE,125,0.0,0.0,81,0.00,,,0.00,weatherlink.com 1.10,2013-01-27 11:51:00,
2013-01-27 07:06:00,18.5,13.0,30.51,SE,129,0.0,0.0,80,0.00,,,0.00,weatherlink.com 1.10,2013-01-27 12:06:00,
2013-01-27 07:22:00,17.7,13.0,30.52,SE,129,0.0,0.0,80,0.00,,,0.00,weatherlink.com 1.10,2013-01-27 12:22:00,
2013-01-27 07:37:00,16.8,12.0,30.53,SE,131,0.0,0.0,81,0.00,,,0.00,weatherlink.com 1.10,2013-01-27 12:37:00,
2013-01-27 07:52:00,17.4,13.0,30.54,SE,127,0.0,1.0,83,0.00,,,0.00,weatherlink.com 1.10,2013-01-27 12:52:00,
2013-01-27 08:07:00,19.3,14.0,30.55,SE,134,0.0,0.0,80,0.00,,,0.00,weatherlink.com 1.10,2013-01-27 13:07:00,
2013-01-27 08:22:00,21.0,15.0,30.55,SE,134,0.0,0.0,76,0.00,,,0.00,weatherlink.com 1.10,2013-01-27 13:22:00,
2013-01-27 08:37:00,22.7,15.0,30.55,SE,132,0.0,0.0,72,0.00,,,0.00,weatherlink.com 1.10,2013-01-27 13:37:00,
2013-01-27 08:52:00,24.7,16.0,30.56,SE,135,0.0,0.0,70,0.00,,,0.00,weatherlink.com 1.10,2013-01-27 13:52:00,
2013-01-27 09:07:00,26.9,17.0,30.56,East,98,0.0,0.0,65,0.00,,,0.00,weatherlink.com 1.10,2013-01-27 14:07:00,
2013-01-27 09:22:00,26.7,16.0,30.56,ENE,64,0.0,1.0,65,0.00,,,0.00,weatherlink.com 1.10,2013-01-27 14:22:00,
2013-01-27 09:37:00,27.4,16.0,30.56,NE,35,0.0,2.0,63,0.00,,,0.00,weatherlink.com 1.10,2013-01-27 14:37:00,
2013-01-27 09:52:00,26.8,16.0,30.57,West,264,0.0,4.0,64,0.00,,,0.00,weatherlink.com 1.10,2013-01-27 14:52:00,
2013-01-27 10:07:00,27.3,15.0,30.57,NW,308,0.0,6.0,61,0.00,,,0.00,weatherlink.com 1.10,2013-01-27 15:07:00,
2013-01-27 10:22:00,27.9,15.0,30.57,WNW,283,4.0,6.0,58,0.00,,,0.00,weatherlink.com 1.10,2013-01-27 15:22:00,
2013-01-27 10:37:00,28.2,15.0,30.57,NW,319,0.0,6.0,59,0.00,,,0.00,weatherlink.com 1.10,2013-01-27 15:37:00,
2013-01-27 10:52:00,28.8,15.0,30.57,NNE,13,4.0,5.0,57,0.00,,,0.00,weatherlink.com 1.10,2013-01-27 15:52:00,
2013-01-27 11:07:00,29.8,16.0,30.57,NNE,29,2.0,3.0,57,0.00,,,0.00,weatherlink.com 1.10,2013-01-27 16:07:00,
2013-01-27 11:22:00,30.4,16.0,30.56,North,352,0.0,3.0,55,0.00,,,0.00,weatherlink.com 1.10,2013-01-27 16:22:00,
2013-01-27 11:37:00,31.8,17.0,30.55,WSW,242,0.0,4.0,54,0.00,,,0.00,weatherlink.com 1.10,2013-01-27 16:37:00,
2013-01-27 11:52:00,32.4,16.0,30.55,SW,222,0.0,4.0,51,0.00,,,0.00,weatherlink.com 1.10,2013-01-27 16:52:00,
2013-01-27 12:07:00,31.6,16.0,30.54,East,84,0.0,4.0,52,0.00,,,0.00,weatherlink.com 1.10,2013-01-27 17:07:00,
2013-01-27 12:22:00,33.1,17.0,30.52,SE,145,1.0,2.0,51,0.00,,,0.00,weatherlink.com 1.10,2013-01-27 17:22:00,
2013-01-27 12:37:00,32.7,16.0,30.52,SW,231,0.0,4.0,51,0.00,,,0.00,weatherlink.com 1.10,2013-01-27 17:37:00,
2013-01-27 12:52:00,32.2,16.0,30.51,ENE,57,0.0,5.0,51,0.00,,,0.00,weatherlink.com 1.10,2013-01-27 17:52:00,
2013-01-27 13:07:00,32.3,16.0,30.51,WNW,301,4.0,7.0,51,0.00,,,0.00,weatherlink.com 1.10,2013-01-27 18:07:00,
2013-01-27 13:22:00,32.4,16.0,30.50,SW,218,4.0,6.0,50,0.00,,,0.00,weatherlink.com 1.10,2013-01-27 18:22:00,
2013-01-27 13:37:00,32.9,16.0,30.51,WNW,295,1.0,7.0,50,0.00,,,0.00,weatherlink.com 1.10,2013-01-27 18:37:00,
2013-01-27 13:52:00,32.2,16.0,30.50,West,266,0.0,6.0,51,0.00,,,0.00,weatherlink.com 1.10,2013-01-27 18:52:00,
2013-01-27 14:07:00,32.2,15.0,30.50,WNW,293,0.0,5.0,49,0.00,,,0.00,weatherlink.com 1.10,2013-01-27 19:07:00,
2013-01-27 14:22:00,32.0,15.0,30.49,WSW,255,2.0,6.0,50,0.00,,,0.00,weatherlink.com 1.10,2013-01-27 19:22:00,
2013-01-27 14:37:00,32.9,16.0,30.49,SSW,203,2.0,7.0,51,0.00,,,0.00,weatherlink.com 1.10,2013-01-27 19:37:00,
2013-01-27 14:52:00,33.7,16.0,30.48,SSE,150,0.0,6.0,49,0.00,,,0.00,weatherlink.com 1.10,2013-01-27 19:52:00,
2013-01-27 15:07:00,33.8,16.0,30.48,SSE,168,0.0,3.0,49,0.00,,,0.00,weatherlink.com 1.10,2013-01-27 20:07:00,
2013-01-27 15:22:00,34.2,17.0,30.48,South,188,0.0,3.0,49,0.00,,,0.00,weatherlink.com 1.10,2013-01-27 20:22:00,
2013-01-27 15:37:00,33.9,17.0,30.48,SE,145,0.0,1.0,51,0.00,,,0.00,weatherlink.com 1.10,2013-01-27 20:37:00,
2013-01-27 15:52:00,34.0,17.0,30.48,WNW,284,0.0,1.0,51,0.00,,,0.00,weatherlink.com 1.10,2013-01-27 20:52:00,
2013-01-27 16:07:00,34.7,17.0,30.48,SSW,200,0.0,3.0,48,0.00,,,0.00,weatherlink.com 1.10,2013-01-27 21:07:00,
2013-01-27 16:22:00,34.0,17.0,30.48,SW,219,3.0,3.0,49,0.00,,,0.00,weatherlink.com 1.10,2013-01-27 21:22:00,
2013-01-27 16:37:00,34.3,16.0,30.48,SE,127,6.0,6.0,48,0.00,,,0.00,weatherlink.com 1.10,2013-01-27 21:37:00,
2013-01-27 17:07:00,32.3,16.0,30.48,SE,136,0.0,3.0,51,0.00,,,0.00,weatherlink.com 1.10,2013-01-27 22:07:00,
2013-01-27 17:23:00,31.8,17.0,30.48,ESE,111,0.0,2.0,54,0.00,,,0.00,weatherlink.com 1.10,2013-01-27 22:23:00,
2013-01-27 17:38:00,31.0,17.0,30.48,SE,143,1.0,2.0,56,0.00,,,0.00,weatherlink.com 1.10,2013-01-27 22:38:00,
2013-01-27 17:53:00,30.4,17.0,30.48,SE,139,0.0,2.0,58,0.00,,,0.00,weatherlink.com 1.10,2013-01-27 22:53:00,
2013-01-27 18:23:00,28.7,17.0,30.49,SE,139,0.0,0.0,63,0.00,,,0.00,weatherlink.com 1.10,2013-01-27 23:23:00,
2013-01-27 18:38:00,27.9,18.0,30.48,SE,139,0.0,0.0,67,0.00,,,0.00,weatherlink.com 1.10,2013-01-27 23:38:00,
2013-01-27 18:53:00,27.3,17.0,30.48,ESE,122,0.0,0.0,65,0.00,,,0.00,weatherlink.com 1.10,2013-01-27 23:53:00,
2013-01-27 19:08:00,27.4,17.0,30.48,North,360,1.0,2.0,64,0.00,,,0.00,weatherlink.com 1.10,2013-01-28 00:08:00,
2013-01-27 19:23:00,26.8,17.0,30.48,North,359,0.0,1.0,66,0.00,,,0.00,weatherlink.com 1.10,2013-01-28 00:23:00,
2013-01-27 19:38:00,26.4,17.0,30.47,ESE,110,0.0,0.0,69,0.00,,,0.00,weatherlink.com 1.10,2013-01-28 00:38:00,
2013-01-27 20:08:00,26.5,17.0,30.46,NNW,345,0.0,0.0,67,0.00,,,0.00,weatherlink.com 1.10,2013-01-28 01:08:00,
2013-01-27 20:23:00,26.7,18.0,30.47,WNW,302,0.0,1.0,69,0.00,,,0.00,weatherlink.com 1.10,2013-01-28 01:23:00,
2013-01-27 20:38:00,26.3,17.0,30.47,NNW,334,0.0,1.0,69,0.00,,,0.00,weatherlink.com 1.10,2013-01-28 01:38:00,
2013-01-27 20:53:00,26.0,18.0,30.47,NNW,345,0.0,0.0,72,0.00,,,0.00,weatherlink.com 1.10,2013-01-28 01:53:00,
2013-01-27 21:08:00,25.8,18.0,30.47,North,349,1.0,2.0,72,0.00,,,0.00,weatherlink.com 1.10,2013-01-28 02:08:00,
2013-01-27 21:23:00,25.9,18.0,30.47,NW,319,0.0,1.0,72,0.00,,,0.00,weatherlink.com 1.10,2013-01-28 02:23:00,
2013-01-27 21:38:00,25.9,18.0,30.47,NNW,328,0.0,0.0,72,0.00,,,0.00,weatherlink.com 1.10,2013-01-28 02:38:00,
2013-01-27 21:53:00,25.9,18.0,30.46,NNW,328,0.0,0.0,72,0.00,,,0.00,weatherlink.com 1.10,2013-01-28 02:53:00,
2013-01-27 22:23:00,26.2,18.0,30.45,NNW,328,0.0,0.0,72,0.00,,,0.00,weatherlink.com 1.10,2013-01-28 03:23:00,
2013-01-27 22:38:00,26.2,18.0,30.45,NW,324,0.0,0.0,72,0.00,,,0.00,weatherlink.com 1.10,2013-01-28 03:38:00,
2013-01-27 22:53:00,26.6,19.0,30.45,NW,307,0.0,0.0,73,0.00,,,0.00,weatherlink.com 1.10,2013-01-28 03:53:00,
2013-01-27 23:08:00,27.5,20.0,30.46,SSE,162,1.0,1.0,74,0.00,,,0.00,weatherlink.com 1.10,2013-01-28 04:08:00,
2013-01-27 23:23:00,29.6,20.0,30.44,SSE,156,3.0,5.0,67,0.00,,,0.00,weatherlink.com 1.10,2013-01-28 04:23:00,
2013-01-27 23:38:00,31.4,20.0,30.45,SE,143,5.0,9.0,63,0.00,,,0.00,weatherlink.com 1.10,2013-01-28 04:38:00,
2013-01-27 23:53:00,31.7,20.0,30.44,South,183,6.0,10.0,62,0.00,,,0.00,weatherlink.com 1.10,2013-01-28 04:53:00,